createdAt,value
2018-06-19T00:02:14.626Z,5.00
2018-06-19T00:04:42.210Z,6.20
2018-06-19T00:07:10.518Z,11.00
2018-06-19T00:09:38.118Z,5.40
2018-06-19T00:12:05.694Z,4.60
2018-06-19T00:14:34.194Z,4.40
2018-06-19T00:17:02.395Z,5.00
2018-06-19T00:19:30.650Z,5.00
2018-06-19T00:21:58.264Z,4.60
2018-06-19T00:24:25.886Z,2.80
2018-06-19T00:26:53.755Z,3.60
2018-06-19T00:29:21.365Z,4.00
2018-06-19T00:31:48.932Z,4.40
2018-06-19T00:34:16.813Z,5.00
2018-06-19T00:36:44.398Z,4.60
2018-06-19T00:39:13.260Z,3.60
2018-06-19T00:41:41.780Z,2.40
2018-06-19T00:44:10.162Z,2.00
2018-06-19T00:46:37.754Z,4.00
2018-06-19T00:49:05.314Z,2.00
2018-06-19T00:51:32.934Z,4.00
2018-06-19T00:54:00.786Z,2.80
2018-06-19T00:56:28.417Z,2.80
2018-06-19T00:58:56.040Z,2.00
2018-06-19T01:01:23.650Z,2.00
2018-06-19T01:03:51.534Z,4.00
2018-06-19T01:06:19.121Z,3.60
2018-06-19T01:08:46.702Z,5.40
2018-06-19T01:11:14.970Z,2.00
2018-06-19T01:13:42.838Z,4.40
2018-06-19T01:16:10.414Z,4.00
2018-06-19T01:18:38.671Z,1.60
2018-06-19T01:21:07.066Z,4.20
2018-06-19T01:23:34.690Z,4.80
2018-06-19T01:26:02.257Z,5.00
2018-06-19T01:28:29.867Z,3.20
2018-06-19T01:30:57.725Z,3.60
2018-06-19T01:33:25.310Z,2.20
2018-06-19T01:35:54.301Z,2.20
2018-06-19T01:38:21.875Z,4.00
2018-06-19T01:40:49.845Z,4.60
2018-06-19T01:43:17.446Z,4.20
2018-06-19T01:45:45.024Z,4.40
2018-06-19T01:48:12.656Z,4.60
2018-06-19T01:50:40.271Z,5.20
2018-06-19T01:53:07.851Z,5.20
2018-06-19T01:55:35.705Z,4.00
2018-06-19T01:58:03.305Z,4.00
2018-06-19T02:00:30.899Z,4.20
2018-06-19T02:02:58.494Z,4.40
2018-06-19T02:05:26.382Z,5.20
2018-06-19T02:07:53.986Z,4.00
2018-06-19T02:10:21.583Z,2.20
2018-06-19T02:12:49.146Z,4.00
2018-06-19T02:15:17.014Z,4.00
2018-06-19T02:17:44.658Z,4.60
2018-06-19T02:20:12.251Z,4.60
2018-06-19T02:22:39.819Z,6.00
2018-06-19T02:25:07.889Z,4.00
2018-06-19T02:27:35.462Z,5.00
2018-06-19T02:30:03.051Z,3.60
2018-06-19T02:32:30.882Z,5.00
2018-06-19T02:34:58.529Z,2.80
2018-06-19T02:37:26.106Z,4.00
2018-06-19T02:39:53.679Z,6.00
2018-06-19T02:42:21.527Z,4.60
2018-06-19T02:44:49.099Z,3.00
2018-06-19T02:47:16.691Z,3.60
2018-06-19T02:49:44.535Z,4.00
2018-06-19T02:52:12.264Z,5.80
2018-06-19T02:54:40.498Z,3.20
2018-06-19T02:57:08.542Z,3.20
2018-06-19T02:59:36.651Z,5.20
2018-06-19T03:02:04.426Z,4.00
2018-06-19T03:04:32.074Z,4.00
2018-06-19T03:06:59.952Z,4.80
2018-06-19T03:09:27.540Z,6.80
2018-06-19T03:11:55.110Z,4.80
2018-06-19T03:14:22.970Z,4.20
2018-06-19T03:16:50.546Z,5.20
2018-06-19T03:19:18.209Z,4.00
2018-06-19T03:21:45.786Z,6.00
2018-06-19T03:24:13.634Z,4.40
2018-06-19T03:26:41.211Z,6.00
2018-06-19T03:29:09.738Z,3.20
2018-06-19T03:31:37.563Z,6.60
2018-06-19T03:34:05.396Z,6.00
2018-06-19T03:36:33.630Z,4.20
2018-06-19T03:39:01.554Z,4.20
2018-06-19T03:41:29.155Z,3.20
2018-06-19T03:43:57.209Z,5.40
2018-06-19T03:46:24.758Z,5.60
2018-06-19T03:48:52.358Z,5.40
2018-06-19T03:51:20.870Z,5.80
2018-06-19T03:53:48.766Z,6.80
2018-06-19T03:56:16.325Z,5.00
2018-06-19T03:58:43.931Z,3.20
2018-06-19T04:01:11.506Z,5.20
2018-06-19T04:03:39.545Z,4.40
2018-06-19T04:06:07.901Z,3.20
2018-06-19T04:08:35.488Z,4.40
2018-06-19T04:11:03.089Z,7.20
2018-06-19T04:13:31.005Z,3.00
2018-06-19T04:15:59.091Z,5.80
2018-06-19T04:18:26.673Z,6.60
2018-06-19T04:20:55.154Z,6.20
2018-06-19T04:23:23.345Z,4.00
2018-06-19T04:25:51.739Z,7.00
2018-06-19T04:28:19.593Z,4.00
2018-06-19T04:30:47.154Z,3.60
2018-06-19T04:33:14.750Z,3.60
2018-06-19T04:35:42.702Z,4.00
2018-06-19T04:38:10.261Z,6.20
2018-06-19T04:40:37.830Z,4.60
2018-06-19T04:43:05.679Z,4.80
2018-06-19T04:45:33.234Z,3.00
2018-06-19T04:48:00.795Z,4.00
2018-06-19T04:50:28.346Z,7.00
2018-06-19T04:52:57.908Z,6.00
2018-06-19T04:55:25.918Z,7.00
2018-06-19T04:57:53.514Z,5.20
2018-06-19T05:00:21.090Z,4.60
2018-06-19T05:02:48.938Z,5.40
2018-06-19T05:05:16.489Z,4.80
2018-06-19T05:07:44.066Z,4.00
2018-06-19T05:10:11.919Z,4.20
2018-06-19T05:12:39.494Z,9.00
2018-06-19T05:15:07.078Z,5.20
2018-06-19T05:17:34.946Z,7.00
2018-06-19T05:20:03.119Z,5.80
2018-06-19T05:22:31.585Z,7.40
2018-06-19T05:24:59.419Z,9.00
2018-06-19T05:27:26.982Z,8.20
2018-06-19T05:29:57.545Z,9.60
2018-06-19T05:32:25.450Z,12.40
2018-06-19T05:34:54.679Z,9.80
2018-06-19T05:37:22.266Z,11.60
2018-06-19T05:39:50.150Z,10.00
2018-06-19T05:42:17.738Z,7.00
2018-06-19T05:44:46.206Z,9.00
2018-06-19T05:47:14.369Z,11.40
2018-06-19T05:49:41.967Z,13.20
2018-06-19T05:52:09.558Z,13.00
2018-06-19T05:54:37.459Z,11.20
2018-06-19T05:57:05.714Z,14.20
2018-06-19T05:59:33.322Z,14.60
2018-06-19T06:02:01.219Z,12.40
2018-06-19T06:04:28.819Z,15.40
2018-06-19T06:06:56.419Z,13.80
2018-06-19T06:09:24.279Z,18.20
2018-06-19T06:11:51.855Z,16.40
2018-06-19T06:14:19.466Z,15.80
2018-06-19T06:16:47.659Z,13.00
2018-06-19T06:19:16.276Z,16.40
2018-06-19T06:21:43.846Z,21.00
2018-06-19T06:24:13.311Z,14.60
2018-06-19T06:26:40.874Z,16.20
2018-06-19T06:29:08.677Z,15.60
2018-06-19T06:31:37.384Z,16.20
2018-06-19T06:34:04.974Z,14.20
2018-06-19T06:36:32.594Z,22.60
2018-06-19T06:39:00.498Z,15.80
2018-06-19T06:41:28.084Z,17.80
2018-06-19T06:43:56.837Z,20.20
2018-06-19T06:46:25.625Z,17.00
2018-06-19T06:48:53.331Z,21.60
2018-06-19T06:51:20.995Z,16.20
2018-06-19T06:53:49.742Z,18.80
2018-06-19T06:56:17.338Z,22.60
2018-06-19T06:58:45.978Z,17.20
2018-06-19T07:01:13.946Z,24.40
2018-06-19T07:03:41.589Z,22.20
2018-06-19T07:06:09.198Z,19.20
2018-06-19T07:08:37.118Z,21.00
2018-06-19T07:11:04.735Z,18.80
2018-06-19T07:13:32.352Z,19.00
2018-06-19T07:16:00.348Z,22.80
2018-06-19T07:18:27.946Z,21.20
2018-06-19T07:20:57.220Z,21.40
2018-06-19T07:23:25.083Z,19.80
2018-06-19T07:25:52.740Z,18.00
2018-06-19T07:28:20.374Z,20.00
2018-06-19T07:30:49.112Z,22.40
2018-06-19T07:33:16.731Z,22.40
2018-06-19T07:35:44.369Z,20.20
2018-06-19T07:38:13.125Z,22.00
2018-06-19T07:40:41.479Z,24.60
2018-06-19T07:43:11.908Z,21.20
2018-06-19T07:45:39.842Z,20.00
2018-06-19T07:48:09.050Z,20.20
2018-06-19T07:50:36.652Z,18.80
2018-06-19T07:53:04.579Z,17.20
2018-06-19T07:55:32.961Z,20.40
2018-06-19T07:58:00.564Z,22.00
2018-06-19T08:00:28.427Z,24.00
2018-06-19T08:02:56.559Z,17.60
2018-06-19T08:05:25.858Z,16.40
2018-06-19T08:07:53.714Z,20.00
2018-06-19T08:10:21.305Z,19.60
2018-06-19T08:12:49.618Z,26.00
2018-06-19T08:15:17.787Z,19.00
2018-06-19T08:17:45.446Z,19.20
2018-06-19T08:20:13.386Z,23.60
2018-06-19T08:22:42.465Z,18.20
2018-06-19T08:25:11.363Z,21.00
2018-06-19T08:27:38.962Z,16.40
2018-06-19T08:30:07.797Z,21.20
2018-06-19T08:32:35.398Z,23.40
2018-06-19T08:35:02.993Z,21.60
2018-06-19T08:37:32.232Z,18.80
2018-06-19T08:39:59.848Z,22.00
2018-06-19T08:42:28.349Z,24.20
2018-06-19T08:44:58.230Z,22.20
2018-06-19T08:47:25.801Z,22.40
2018-06-19T08:49:56.750Z,23.20
2018-06-19T08:52:24.449Z,19.40
2018-06-19T08:54:53.209Z,19.40
2018-06-19T08:57:21.099Z,24.80
2018-06-19T08:59:48.739Z,26.40
2018-06-19T09:02:16.330Z,24.80
2018-06-19T09:04:44.173Z,29.20
2018-06-19T09:07:11.750Z,25.20
2018-06-19T09:09:39.325Z,25.20
2018-06-19T09:12:07.257Z,20.00
2018-06-19T09:14:35.100Z,24.60
2018-06-19T09:17:02.712Z,25.40
2018-06-19T09:19:31.086Z,25.20
2018-06-19T09:21:59.315Z,30.40
2018-06-19T09:24:27.618Z,24.20
2018-06-19T09:26:55.494Z,26.80
2018-06-19T09:29:23.342Z,29.80
2018-06-19T09:31:50.919Z,22.60
2018-06-19T09:34:19.630Z,24.80
2018-06-19T09:36:47.317Z,24.40
2018-06-19T09:39:15.076Z,24.20
2018-06-19T09:41:46.120Z,19.40
2018-06-19T09:44:16.657Z,28.80
2018-06-19T09:46:45.650Z,23.00
2018-06-19T09:49:13.546Z,21.60
2018-06-19T09:51:42.855Z,19.80
2018-06-19T09:54:10.449Z,14.00
2018-06-19T09:56:39.349Z,20.40
2018-06-19T09:59:06.970Z,20.60
2018-06-19T10:01:34.854Z,20.40
2018-06-19T10:04:02.745Z,22.40
2018-06-19T10:06:30.399Z,16.60
2018-06-19T10:08:58.700Z,14.00
2018-06-19T10:11:27.094Z,15.80
2018-06-19T10:13:54.778Z,11.60
2018-06-19T10:16:23.008Z,17.00
2018-06-19T10:18:51.044Z,16.80
2018-06-19T10:21:19.415Z,19.00
2018-06-19T10:23:47.181Z,15.80
2018-06-19T10:26:15.105Z,13.80
2018-06-19T10:28:43.527Z,13.00
2018-06-19T10:31:11.950Z,12.00
2018-06-19T10:33:40.450Z,12.20
2018-06-19T10:36:08.043Z,11.20
2018-06-19T10:38:35.666Z,12.00
2018-06-19T10:41:03.601Z,10.00
2018-06-19T10:43:31.265Z,11.00
2018-06-19T10:45:59.926Z,15.20
2018-06-19T10:48:28.506Z,13.80
2018-06-19T10:50:57.390Z,12.60
2018-06-19T10:53:28.954Z,10.20
2018-06-19T10:55:57.150Z,12.20
2018-06-19T10:58:24.726Z,10.60
2018-06-19T11:00:54.199Z,14.20
2018-06-19T11:03:23.018Z,14.20
2018-06-19T11:05:50.667Z,12.40
2018-06-19T11:08:18.288Z,15.40
2018-06-19T11:10:46.432Z,12.80
2018-06-19T11:13:14.730Z,14.00
2018-06-19T11:15:43.519Z,13.40
2018-06-19T11:18:11.393Z,13.20
2018-06-19T11:20:38.986Z,16.80
2018-06-19T11:23:06.577Z,14.00
2018-06-19T11:25:34.475Z,12.40
2018-06-19T11:28:05.207Z,16.40
2018-06-19T11:30:33.784Z,15.00
2018-06-19T11:33:02.742Z,13.60
2018-06-19T11:35:30.522Z,14.00
2018-06-19T11:38:00.261Z,13.60
2018-06-19T11:40:28.286Z,14.20
2018-06-19T11:42:57.066Z,17.20
2018-06-19T11:45:25.338Z,14.60
2018-06-19T11:47:53.507Z,15.00
2018-06-19T11:50:22.254Z,17.00
2018-06-19T11:52:51.410Z,14.60
2018-06-19T11:55:19.546Z,14.80
2018-06-19T11:57:47.664Z,16.00
2018-06-19T12:00:15.298Z,15.00
2018-06-19T12:02:43.191Z,16.20
2018-06-19T12:05:10.823Z,18.40
2018-06-19T12:07:40.184Z,21.20
2018-06-19T12:10:08.226Z,23.00
2018-06-19T12:12:35.858Z,20.20
2018-06-19T12:15:03.534Z,19.40
2018-06-19T12:17:32.618Z,21.20
2018-06-19T12:20:01.166Z,25.00
2018-06-19T12:22:29.627Z,17.60
2018-06-19T12:24:57.502Z,22.00
2018-06-19T12:27:25.191Z,22.00
2018-06-19T12:29:52.911Z,21.80
2018-06-19T12:32:22.501Z,18.20
2018-06-19T12:34:51.191Z,21.20
2018-06-19T12:37:18.816Z,17.20
2018-06-19T12:39:47.850Z,14.60
2018-06-19T12:42:20.245Z,13.00
2018-06-19T12:44:49.671Z,15.00
2018-06-19T12:47:18.567Z,15.20
2018-06-19T12:52:31.639Z,12.60
2018-06-19T12:54:59.251Z,11.80
2018-06-19T12:57:28.050Z,13.60
2018-06-19T12:59:55.991Z,12.00
2018-06-19T13:02:23.579Z,11.80
2018-06-19T13:04:53.520Z,12.80
2018-06-19T13:07:22.152Z,12.20
2018-06-19T13:09:49.735Z,9.00
2018-06-19T13:12:18.362Z,13.60
2018-06-19T13:14:47.116Z,11.00
2018-06-19T13:17:14.762Z,9.80
2018-06-19T13:19:43.462Z,11.40
2018-06-19T13:22:11.336Z,11.40
2018-06-19T13:24:40.374Z,10.40
2018-06-19T13:27:07.972Z,10.80
2018-06-19T13:29:36.367Z,14.40
2018-06-19T13:32:05.273Z,10.80
2018-06-19T13:34:33.855Z,10.20
2018-06-19T13:37:03.191Z,13.60
2018-06-19T13:39:30.759Z,14.20
2018-06-19T13:41:58.360Z,14.40
2018-06-19T13:44:27.091Z,12.20
2018-06-19T13:46:54.675Z,13.00
2018-06-19T13:49:24.152Z,15.20
2018-06-19T13:51:53.738Z,9.60
2018-06-19T13:54:23.230Z,14.20
2018-06-19T13:56:51.408Z,15.40
2018-06-19T13:59:21.561Z,11.00
2018-06-19T14:01:49.228Z,12.40
2018-06-19T14:04:16.827Z,10.80
2018-06-19T14:06:44.706Z,10.20
2018-06-19T14:09:12.347Z,12.60
2018-06-19T14:11:40.506Z,10.20
2018-06-19T14:14:10.370Z,13.00
2018-06-19T14:16:38.816Z,14.80
2018-06-19T14:19:06.439Z,10.00
2018-06-19T14:21:34.334Z,16.00
2018-06-19T14:24:01.919Z,11.00
2018-06-19T14:29:04.457Z,15.20
2018-06-19T14:31:33.468Z,14.00
2018-06-19T14:34:02.254Z,12.80
2018-06-19T14:36:30.886Z,13.60
2018-06-19T14:38:58.553Z,13.00
2018-06-19T14:41:26.406Z,11.20
2018-06-19T14:43:56.931Z,9.00
2018-06-19T14:46:25.744Z,14.20
2018-06-19T14:48:53.550Z,13.80
2018-06-19T14:51:23.557Z,12.00
2018-06-19T14:53:50.812Z,8.20
2018-06-19T14:56:18.618Z,8.20
2018-06-19T14:58:46.590Z,7.40
2018-06-19T15:01:16.430Z,8.20
2018-06-19T15:03:44.639Z,6.00
2018-06-19T15:06:13.414Z,8.80
2018-06-19T15:08:41.982Z,7.60
2018-06-19T15:11:09.566Z,8.80
2018-06-19T15:13:40.210Z,8.00
2018-06-19T15:16:07.784Z,9.20
2018-06-19T15:18:35.414Z,6.00
2018-06-19T15:21:03.278Z,8.00
2018-06-19T15:23:31.563Z,8.20
2018-06-19T15:26:01.454Z,8.40
2018-06-19T15:28:31.309Z,6.00
2018-06-19T15:30:59.762Z,7.80
2018-06-19T15:33:27.347Z,10.40
2018-06-19T15:35:57.061Z,6.00
2018-06-19T15:38:25.410Z,4.40
2018-06-19T15:40:52.994Z,4.40
2018-06-19T15:43:20.922Z,9.80
2018-06-19T15:45:49.097Z,10.00
2018-06-19T15:48:17.844Z,9.40
2018-06-19T15:50:45.693Z,9.00
2018-06-19T15:53:14.399Z,7.80
2018-06-19T15:55:43.213Z,8.40
2018-06-19T15:58:11.901Z,8.20
2018-06-19T16:00:40.015Z,9.00
2018-06-19T16:03:07.617Z,9.40
2018-06-19T16:05:35.503Z,5.20
2018-06-19T16:08:08.138Z,8.00
2018-06-19T16:10:35.710Z,7.80
2018-06-19T16:13:25.347Z,7.80
2018-06-19T16:15:56.258Z,8.00
2018-06-19T16:18:24.819Z,7.40
2018-06-19T16:20:52.417Z,6.80
2018-06-19T16:23:20.218Z,6.80
2018-06-19T16:25:48.515Z,8.00
2018-06-19T16:28:16.254Z,6.00
2018-06-19T16:30:43.919Z,7.00
2018-06-19T16:33:11.895Z,5.40
2018-06-19T16:35:39.495Z,8.60
2018-06-19T16:38:09.552Z,6.80
2018-06-19T16:40:39.542Z,4.00
2018-06-19T16:43:10.770Z,7.20
2018-06-19T16:45:44.554Z,5.00
2018-06-19T16:48:12.197Z,7.20
2018-06-19T16:50:39.889Z,7.20
2018-06-19T16:53:07.870Z,5.80
2018-06-19T16:55:35.465Z,6.40
2018-06-19T16:58:03.732Z,8.00
2018-06-19T17:00:31.659Z,6.40
2018-06-19T17:02:59.460Z,9.80
2018-06-19T17:05:27.763Z,8.80
2018-06-19T17:07:57.449Z,8.80
2018-06-19T17:10:28.625Z,9.80
2018-06-19T17:12:57.742Z,8.40
2018-06-19T17:15:26.889Z,8.60
2018-06-19T17:18:00.540Z,8.80
2018-06-19T17:20:31.778Z,8.00
2018-06-19T17:23:01.392Z,8.00
2018-06-19T17:25:31.066Z,6.00
2018-06-19T17:27:58.675Z,9.00
2018-06-19T17:33:00.552Z,9.00
2018-06-19T17:35:28.446Z,9.00
2018-06-19T17:38:00.031Z,9.00
2018-06-19T17:40:28.446Z,12.60
2018-06-19T17:42:56.949Z,11.60
2018-06-19T17:45:25.698Z,11.20
2018-06-19T17:47:54.198Z,12.00
2018-06-19T17:50:22.399Z,9.80
2018-06-19T17:52:52.085Z,8.40
2018-06-19T17:55:19.675Z,10.80
2018-06-19T17:57:48.222Z,9.60
2018-06-19T18:00:16.162Z,10.00
2018-06-19T18:02:44.396Z,13.20
2018-06-19T18:05:11.980Z,12.80
2018-06-19T18:07:40.562Z,8.40
2018-06-19T18:10:08.154Z,9.40
2018-06-19T18:12:40.073Z,8.40
2018-06-19T18:15:08.072Z,9.40
2018-06-19T18:17:36.292Z,11.20
2018-06-19T18:20:04.780Z,12.00
2018-06-19T18:22:33.084Z,10.80
2018-06-19T18:25:01.421Z,8.20
2018-06-19T18:27:29.638Z,12.80
2018-06-19T18:29:59.195Z,9.00
2018-06-19T18:32:27.355Z,8.20
2018-06-19T18:34:56.240Z,9.40
2018-06-19T18:37:25.900Z,8.80
2018-06-19T18:39:54.011Z,10.20
2018-06-19T18:42:22.209Z,8.40
2018-06-19T18:44:50.662Z,6.00
2018-06-19T18:47:18.287Z,9.00
2018-06-19T18:49:46.653Z,9.40
2018-06-19T18:54:52.641Z,12.00
2018-06-19T18:57:23.419Z,8.40
2018-06-19T18:59:52.261Z,10.20
2018-06-19T19:02:20.593Z,8.20
2018-06-19T19:04:48.748Z,9.20
2018-06-19T19:07:16.602Z,9.20
2018-06-19T19:09:49.679Z,9.20
2018-06-19T19:12:17.527Z,10.60
2018-06-19T19:14:51.337Z,7.60
2018-06-19T19:17:23.982Z,7.20
2018-06-19T19:19:51.654Z,8.40
2018-06-19T19:22:20.206Z,8.40
2018-06-19T19:24:47.810Z,12.00
2018-06-19T19:27:20.538Z,8.20
2018-06-19T19:32:24.466Z,9.40
2018-06-19T19:34:55.262Z,6.00
2018-06-19T19:37:28.078Z,9.40
2018-06-19T19:39:55.674Z,8.60
2018-06-19T19:42:23.454Z,12.60
2018-06-19T19:44:51.334Z,11.60
2018-06-19T19:47:24.026Z,11.20
2018-06-19T19:49:52.302Z,9.40
2018-06-19T19:52:21.288Z,11.60
2018-06-19T19:54:50.493Z,8.80
2018-06-19T19:57:23.955Z,12.80
2018-06-19T19:59:52.897Z,11.40
2018-06-19T20:02:21.747Z,9.80
2018-06-19T20:04:49.757Z,9.00
2018-06-19T20:07:19.471Z,8.40
2018-06-19T20:09:47.623Z,11.40
2018-06-19T20:12:15.243Z,10.40
2018-06-19T20:14:48.157Z,12.00
2018-06-19T20:17:15.767Z,11.80
2018-06-19T20:19:44.562Z,11.00
2018-06-19T20:22:15.028Z,13.80
2018-06-19T20:24:46.434Z,11.00
2018-06-19T20:27:14.282Z,9.80
2018-06-19T20:29:44.551Z,8.40
2018-06-19T20:32:14.039Z,8.80
2018-06-19T20:34:41.883Z,11.20
2018-06-19T20:37:16.469Z,9.00
2018-06-19T20:39:46.421Z,9.00
2018-06-19T20:42:19.118Z,11.00
2018-06-19T20:44:46.723Z,10.60
2018-06-19T20:47:19.459Z,8.00
2018-06-19T20:49:51.005Z,10.40
2018-06-19T20:52:20.379Z,8.80
2018-06-19T20:54:52.323Z,8.80
2018-06-19T20:57:22.447Z,9.40
2018-06-19T20:59:50.108Z,9.00
2018-06-19T21:02:17.731Z,6.80
2018-06-19T21:04:45.630Z,11.80
2018-06-19T21:07:14.051Z,8.00
2018-06-19T21:12:41.626Z,8.80
2018-06-19T21:15:12.186Z,12.60
2018-06-19T21:17:41.625Z,8.60
2018-06-19T21:20:10.210Z,10.80
2018-06-19T21:22:37.850Z,10.60
2018-06-19T21:25:06.222Z,11.00
2018-06-19T21:27:34.079Z,12.20
2018-06-19T21:30:02.820Z,11.20
2018-06-19T21:32:31.793Z,9.80
2018-06-19T21:35:02.131Z,9.80
2018-06-19T21:37:30.270Z,11.60
2018-06-19T21:39:57.870Z,11.40
2018-06-19T21:42:25.902Z,10.20
2018-06-19T21:44:55.694Z,12.40
2018-06-19T21:47:26.469Z,9.00
2018-06-19T21:49:54.311Z,9.00
2018-06-19T21:52:24.366Z,13.80
2018-06-19T21:54:55.754Z,9.80
2018-06-19T21:57:23.655Z,12.00
2018-06-19T21:59:51.245Z,15.60
2018-06-19T22:02:25.887Z,12.60
2018-06-19T22:04:53.784Z,15.00
2018-06-19T22:07:21.590Z,14.40
2018-06-19T22:09:50.910Z,11.60
2018-06-19T22:12:20.090Z,13.20
2018-06-19T22:14:47.663Z,12.40
2018-06-19T22:17:15.389Z,13.80
2018-06-19T22:19:43.231Z,15.40
2018-06-19T22:22:10.799Z,14.20
2018-06-19T22:24:38.390Z,12.00
2018-06-19T22:27:06.249Z,13.00
2018-06-19T22:29:33.877Z,15.80
2018-06-19T22:32:01.643Z,12.40
2018-06-19T22:34:32.254Z,14.00
2018-06-19T22:37:00.938Z,17.00
2018-06-19T22:39:29.107Z,11.80
2018-06-19T22:41:58.478Z,14.00
2018-06-19T22:44:26.859Z,15.40
2018-06-19T22:46:55.498Z,12.80
2018-06-19T22:49:25.423Z,17.40
2018-06-19T22:51:53.023Z,12.60
2018-06-19T22:54:20.595Z,12.80
2018-06-19T22:56:48.486Z,11.40
2018-06-19T22:59:16.110Z,14.20
2018-06-19T23:01:44.226Z,14.60
2018-06-19T23:04:11.834Z,11.40
2018-06-19T23:06:40.368Z,10.60
2018-06-19T23:09:09.582Z,14.80
2018-06-19T23:11:38.129Z,12.00
2018-06-19T23:14:05.977Z,13.60
2018-06-19T23:16:33.566Z,13.80
2018-06-19T23:19:01.137Z,13.00
2018-06-19T23:21:28.719Z,14.40
2018-06-19T23:23:56.559Z,14.20
2018-06-19T23:26:24.421Z,11.60
2018-06-19T23:28:53.814Z,12.00
2018-06-19T23:31:22.470Z,14.60
2018-06-19T23:33:50.055Z,16.60
2018-06-19T23:36:18.492Z,11.20
2018-06-19T23:38:46.074Z,11.80
2018-06-19T23:41:14.702Z,15.20
2018-06-19T23:43:42.270Z,14.20
2018-06-19T23:46:09.859Z,19.20
2018-06-19T23:48:37.450Z,18.20
2018-06-19T23:51:05.310Z,16.00
2018-06-19T23:53:32.878Z,16.20
2018-06-19T23:56:00.451Z,12.00
2018-06-19T23:58:28.304Z,10.80
